sensor_id;sensor_type;location;lat;lon;timestamp;temperature;humidity
26821;DHT22;37186;51.394;5.454;2024-03-08T00:01:33;8.40;78.00
26821;DHT22;37186;51.394;5.454;2024-03-08T00:04:34;8.40;78.10
26821;DHT22;37186;51.394;5.454;2024-03-08T00:07:35;8.40;78.00
26821;DHT22;37186;51.394;5.454;2024-03-08T00:10:36;8.40;78.10
26821;DHT22;37186;51.394;5.454;2024-03-08T00:13:39;8.30;78.00
26821;DHT22;37186;51.394;5.454;2024-03-08T00:16:39;8.30;78.10
26821;DHT22;37186;51.394;5.454;2024-03-08T00:19:42;8.20;78.10
26821;DHT22;37186;51.394;5.454;2024-03-08T00:22:43;8.20;78.10
26821;DHT22;37186;51.394;5.454;2024-03-08T00:25:44;8.20;78.10
26821;DHT22;37186;51.394;5.454;2024-03-08T00:28:45;8.20;78.10
26821;DHT22;37186;51.394;5.454;2024-03-08T00:31:45;8.10;78.00
26821;DHT22;37186;51.394;5.454;2024-03-08T00:34:46;8.10;78.20
26821;DHT22;37186;51.394;5.454;2024-03-08T00:37:46;8.10;78.00
26821;DHT22;37186;51.394;5.454;2024-03-08T00:40:47;8.10;78.00
26821;DHT22;37186;51.394;5.454;2024-03-08T00:43:47;8.10;78.10
26821;DHT22;37186;51.394;5.454;2024-03-08T00:46:48;8.00;78.00
26821;DHT22;37186;51.394;5.454;2024-03-08T00:49:50;8.00;77.90
26821;DHT22;37186;51.394;5.454;2024-03-08T00:52:50;8.00;78.10
26821;DHT22;37186;51.394;5.454;2024-03-08T00:55:51;7.90;78.00
26821;DHT22;37186;51.394;5.454;2024-03-08T00:58:51;7.90;78.00
26821;DHT22;37186;51.394;5.454;2024-03-08T01:01:52;7.90;78.00
26821;DHT22;37186;51.394;5.454;2024-03-08T01:04:53;7.90;78.00
26821;DHT22;37186;51.394;5.454;2024-03-08T01:07:53;7.80;77.90
26821;DHT22;37186;51.394;5.454;2024-03-08T01:10:54;7.80;78.00
26821;DHT22;37186;51.394;5.454;2024-03-08T01:13:54;7.70;78.10
26821;DHT22;37186;51.394;5.454;2024-03-08T01:16:55;7.70;77.90
26821;DHT22;37186;51.394;5.454;2024-03-08T01:19:55;7.70;77.70
26821;DHT22;37186;51.394;5.454;2024-03-08T01:22:56;7.70;78.00
26821;DHT22;37186;51.394;5.454;2024-03-08T01:25:57;7.70;78.00
26821;DHT22;37186;51.394;5.454;2024-03-08T01:28:57;7.60;77.90
26821;DHT22;37186;51.394;5.454;2024-03-08T01:31:58;7.60;77.90
26821;DHT22;37186;51.394;5.454;2024-03-08T01:35:02;7.60;77.90
26821;DHT22;37186;51.394;5.454;2024-03-08T01:38:03;7.60;77.80
26821;DHT22;37186;51.394;5.454;2024-03-08T01:41:05;7.50;77.80
26821;DHT22;37186;51.394;5.454;2024-03-08T01:44:05;7.50;77.90
26821;DHT22;37186;51.394;5.454;2024-03-08T01:47:07;7.50;77.90
26821;DHT22;37186;51.394;5.454;2024-03-08T01:50:08;7.50;78.00
26821;DHT22;37186;51.394;5.454;2024-03-08T01:53:10;7.40;78.70
26821;DHT22;37186;51.394;5.454;2024-03-08T01:56:12;7.40;77.90
26821;DHT22;37186;51.394;5.454;2024-03-08T01:59:14;7.40;77.90
26821;DHT22;37186;51.394;5.454;2024-03-08T02:02:16;7.40;77.90
26821;DHT22;37186;51.394;5.454;2024-03-08T02:05:18;7.40;78.00
26821;DHT22;37186;51.394;5.454;2024-03-08T02:08:19;7.30;77.70
26821;DHT22;37186;51.394;5.454;2024-03-08T02:11:23;7.30;77.90
26821;DHT22;37186;51.394;5.454;2024-03-08T02:14:23;7.30;77.90
26821;DHT22;37186;51.394;5.454;2024-03-08T02:17:24;7.30;77.90
26821;DHT22;37186;51.394;5.454;2024-03-08T02:20:28;7.20;77.80
26821;DHT22;37186;51.394;5.454;2024-03-08T02:23:29;7.20;77.90
26821;DHT22;37186;51.394;5.454;2024-03-08T02:26:30;7.20;77.80
26821;DHT22;37186;51.394;5.454;2024-03-08T02:29:31;7.20;77.80
26821;DHT22;37186;51.394;5.454;2024-03-08T02:32:34;7.10;77.50
26821;DHT22;37186;51.394;5.454;2024-03-08T02:35:35;7.10;77.60
26821;DHT22;37186;51.394;5.454;2024-03-08T02:38:35;7.10;77.90
26821;DHT22;37186;51.394;5.454;2024-03-08T02:41:36;7.10;78.60
26821;DHT22;37186;51.394;5.454;2024-03-08T02:44:37;7.00;77.70
26821;DHT22;37186;51.394;5.454;2024-03-08T02:47:38;7.00;77.70
26821;DHT22;37186;51.394;5.454;2024-03-08T02:50:38;7.00;77.50
26821;DHT22;37186;51.394;5.454;2024-03-08T02:53:45;7.00;77.80
26821;DHT22;37186;51.394;5.454;2024-03-08T02:56:45;7.00;77.70
26821;DHT22;37186;51.394;5.454;2024-03-08T02:59:51;6.90;77.80
26821;DHT22;37186;51.394;5.454;2024-03-08T03:02:53;6.90;77.70
26821;DHT22;37186;51.394;5.454;2024-03-08T03:05:54;6.90;77.70
26821;DHT22;37186;51.394;5.454;2024-03-08T03:08:55;6.90;77.70
26821;DHT22;37186;51.394;5.454;2024-03-08T03:11:57;6.80;77.80
26821;DHT22;37186;51.394;5.454;2024-03-08T03:14:58;6.80;77.70
26821;DHT22;37186;51.394;5.454;2024-03-08T03:17:59;6.80;77.70
26821;DHT22;37186;51.394;5.454;2024-03-08T03:21:00;6.80;77.70
26821;DHT22;37186;51.394;5.454;2024-03-08T03:24:05;6.70;77.90
26821;DHT22;37186;51.394;5.454;2024-03-08T03:27:10;6.70;77.70
26821;DHT22;37186;51.394;5.454;2024-03-08T03:30:13;6.70;77.60
26821;DHT22;37186;51.394;5.454;2024-03-08T03:33:21;6.70;77.60
26821;DHT22;37186;51.394;5.454;2024-03-08T03:36:22;6.60;77.70
26821;DHT22;37186;51.394;5.454;2024-03-08T03:39:25;6.60;77.60
26821;DHT22;37186;51.394;5.454;2024-03-08T03:42:26;6.60;77.70
26821;DHT22;37186;51.394;5.454;2024-03-08T03:45:27;6.60;77.60
26821;DHT22;37186;51.394;5.454;2024-03-08T03:48:28;6.50;77.60
26821;DHT22;37186;51.394;5.454;2024-03-08T03:51:28;6.50;77.70
26821;DHT22;37186;51.394;5.454;2024-03-08T03:54:29;6.50;77.60
26821;DHT22;37186;51.394;5.454;2024-03-08T03:57:31;6.50;77.60
26821;DHT22;37186;51.394;5.454;2024-03-08T04:00:32;6.40;77.60
26821;DHT22;37186;51.394;5.454;2024-03-08T04:03:33;6.40;77.60
26821;DHT22;37186;51.394;5.454;2024-03-08T04:06:33;6.40;77.60
26821;DHT22;37186;51.394;5.454;2024-03-08T04:09:35;6.40;77.60
26821;DHT22;37186;51.394;5.454;2024-03-08T04:12:35;6.40;77.50
26821;DHT22;37186;51.394;5.454;2024-03-08T04:15:36;6.40;77.70
26821;DHT22;37186;51.394;5.454;2024-03-08T04:18:38;6.30;77.60
26821;DHT22;37186;51.394;5.454;2024-03-08T04:21:38;6.30;77.60
26821;DHT22;37186;51.394;5.454;2024-03-08T04:24:39;6.30;77.60
26821;DHT22;37186;51.394;5.454;2024-03-08T04:27:41;6.30;77.40
26821;DHT22;37186;51.394;5.454;2024-03-08T04:30:42;6.30;78.40
26821;DHT22;37186;51.394;5.454;2024-03-08T04:33:42;6.20;77.50
26821;DHT22;37186;51.394;5.454;2024-03-08T04:36:44;6.20;77.30
26821;DHT22;37186;51.394;5.454;2024-03-08T04:39:45;6.20;77.70
26821;DHT22;37186;51.394;5.454;2024-03-08T04:42:45;6.20;77.60
26821;DHT22;37186;51.394;5.454;2024-03-08T04:45:46;6.10;77.60
26821;DHT22;37186;51.394;5.454;2024-03-08T04:48:46;6.10;77.60
26821;DHT22;37186;51.394;5.454;2024-03-08T04:51:47;6.10;77.70
26821;DHT22;37186;51.394;5.454;2024-03-08T04:54:48;6.10;77.40
26821;DHT22;37186;51.394;5.454;2024-03-08T04:57:48;6.10;77.50
26821;DHT22;37186;51.394;5.454;2024-03-08T05:00:49;6.10;77.60
26821;DHT22;37186;51.394;5.454;2024-03-08T05:03:51;6.10;77.70
26821;DHT22;37186;51.394;5.454;2024-03-08T05:06:54;6.00;77.50
26821;DHT22;37186;51.394;5.454;2024-03-08T05:09:55;6.00;77.40
26821;DHT22;37186;51.394;5.454;2024-03-08T05:12:55;6.00;77.40
26821;DHT22;37186;51.394;5.454;2024-03-08T05:15:56;6.00;77.40
26821;DHT22;37186;51.394;5.454;2024-03-08T05:18:59;6.00;77.60
26821;DHT22;37186;51.394;5.454;2024-03-08T05:22:00;6.00;77.40
26821;DHT22;37186;51.394;5.454;2024-03-08T05:25:00;6.00;77.60
26821;DHT22;37186;51.394;5.454;2024-03-08T05:28:01;5.90;77.60
26821;DHT22;37186;51.394;5.454;2024-03-08T05:31:01;5.90;77.30
26821;DHT22;37186;51.394;5.454;2024-03-08T05:34:02;5.90;77.40
26821;DHT22;37186;51.394;5.454;2024-03-08T05:37:02;5.90;77.40
26821;DHT22;37186;51.394;5.454;2024-03-08T05:40:03;5.90;77.40
26821;DHT22;37186;51.394;5.454;2024-03-08T05:43:09;5.90;77.50
26821;DHT22;37186;51.394;5.454;2024-03-08T05:46:09;5.90;77.40
26821;DHT22;37186;51.394;5.454;2024-03-08T05:49:12;5.80;77.40
26821;DHT22;37186;51.394;5.454;2024-03-08T05:52:13;5.80;77.30
26821;DHT22;37186;51.394;5.454;2024-03-08T05:55:14;5.80;77.30
26821;DHT22;37186;51.394;5.454;2024-03-08T05:58:15;5.80;77.60
26821;DHT22;37186;51.394;5.454;2024-03-08T06:01:16;5.80;77.40
26821;DHT22;37186;51.394;5.454;2024-03-08T06:04:16;5.80;77.50
26821;DHT22;37186;51.394;5.454;2024-03-08T06:07:18;5.80;77.40
26821;DHT22;37186;51.394;5.454;2024-03-08T06:10:20;5.80;77.60
26821;DHT22;37186;51.394;5.454;2024-03-08T06:13:21;5.80;77.50
26821;DHT22;37186;51.394;5.454;2024-03-08T06:16:21;5.80;77.30
26821;DHT22;37186;51.394;5.454;2024-03-08T06:19:22;5.70;77.20
26821;DHT22;37186;51.394;5.454;2024-03-08T06:22:23;5.70;77.50
26821;DHT22;37186;51.394;5.454;2024-03-08T06:25:23;5.70;77.30
26821;DHT22;37186;51.394;5.454;2024-03-08T06:28:24;5.70;77.40
26821;DHT22;37186;51.394;5.454;2024-03-08T06:31:24;5.70;77.40
26821;DHT22;37186;51.394;5.454;2024-03-08T06:34:25;5.70;77.30
26821;DHT22;37186;51.394;5.454;2024-03-08T06:37:26;5.70;77.50
26821;DHT22;37186;51.394;5.454;2024-03-08T06:40:26;5.70;77.20
26821;DHT22;37186;51.394;5.454;2024-03-08T06:43:27;5.70;77.50
26821;DHT22;37186;51.394;5.454;2024-03-08T06:46:34;5.60;77.10
26821;DHT22;37186;51.394;5.454;2024-03-08T06:49:34;5.60;77.40
26821;DHT22;37186;51.394;5.454;2024-03-08T06:52:35;5.60;77.40
26821;DHT22;37186;51.394;5.454;2024-03-08T06:55:36;5.60;77.50
26821;DHT22;37186;51.394;5.454;2024-03-08T06:58:36;5.60;77.30
26821;DHT22;37186;51.394;5.454;2024-03-08T07:01:37;5.60;77.50
26821;DHT22;37186;51.394;5.454;2024-03-08T07:04:38;5.60;77.30
26821;DHT22;37186;51.394;5.454;2024-03-08T07:07:39;5.60;77.20
26821;DHT22;37186;51.394;5.454;2024-03-08T07:10:41;5.60;77.50
26821;DHT22;37186;51.394;5.454;2024-03-08T07:13:42;5.60;77.30
26821;DHT22;37186;51.394;5.454;2024-03-08T07:16:42;5.60;77.40
26821;DHT22;37186;51.394;5.454;2024-03-08T07:19:45;5.60;77.40
26821;DHT22;37186;51.394;5.454;2024-03-08T07:22:48;5.60;77.40
26821;DHT22;37186;51.394;5.454;2024-03-08T07:25:51;5.60;77.50
26821;DHT22;37186;51.394;5.454;2024-03-08T07:28:52;5.60;77.60
26821;DHT22;37186;51.394;5.454;2024-03-08T07:31:54;5.70;77.50
26821;DHT22;37186;51.394;5.454;2024-03-08T07:35:01;5.70;77.70
26821;DHT22;37186;51.394;5.454;2024-03-08T07:38:06;5.70;77.60
26821;DHT22;37186;51.394;5.454;2024-03-08T07:41:07;5.70;77.70
26821;DHT22;37186;51.394;5.454;2024-03-08T07:44:09;5.70;77.60
26821;DHT22;37186;51.394;5.454;2024-03-08T07:47:09;5.70;77.50
26821;DHT22;37186;51.394;5.454;2024-03-08T07:50:10;5.80;78.40
26821;DHT22;37186;51.394;5.454;2024-03-08T07:53:10;5.80;77.70
26821;DHT22;37186;51.394;5.454;2024-03-08T07:56:11;5.80;77.70
26821;DHT22;37186;51.394;5.454;2024-03-08T07:59:13;5.80;77.60
26821;DHT22;37186;51.394;5.454;2024-03-08T08:02:15;5.80;77.70
26821;DHT22;37186;51.394;5.454;2024-03-08T08:05:16;5.90;77.70
26821;DHT22;37186;51.394;5.454;2024-03-08T08:08:18;5.90;78.40
26821;DHT22;37186;51.394;5.454;2024-03-08T08:11:19;5.90;77.70
26821;DHT22;37186;51.394;5.454;2024-03-08T08:14:20;5.90;77.70
26821;DHT22;37186;51.394;5.454;2024-03-08T08:17:21;6.00;77.90
26821;DHT22;37186;51.394;5.454;2024-03-08T08:20:22;6.00;78.00
26821;DHT22;37186;51.394;5.454;2024-03-08T08:23:23;6.00;77.70
26821;DHT22;37186;51.394;5.454;2024-03-08T08:26:24;6.00;77.80
26821;DHT22;37186;51.394;5.454;2024-03-08T08:29:26;6.10;77.80
26821;DHT22;37186;51.394;5.454;2024-03-08T08:32:27;6.10;77.80
26821;DHT22;37186;51.394;5.454;2024-03-08T08:35:27;6.20;77.90
26821;DHT22;37186;51.394;5.454;2024-03-08T08:38:29;6.20;77.90
26821;DHT22;37186;51.394;5.454;2024-03-08T08:41:29;6.20;78.00
26821;DHT22;37186;51.394;5.454;2024-03-08T08:44:30;6.20;77.90
26821;DHT22;37186;51.394;5.454;2024-03-08T08:47:31;6.30;78.10
26821;DHT22;37186;51.394;5.454;2024-03-08T08:50:32;6.30;77.90
26821;DHT22;37186;51.394;5.454;2024-03-08T08:53:32;6.40;78.00
26821;DHT22;37186;51.394;5.454;2024-03-08T08:56:35;6.40;77.90
26821;DHT22;37186;51.394;5.454;2024-03-08T08:59:36;6.40;77.90
26821;DHT22;37186;51.394;5.454;2024-03-08T09:02:39;6.50;78.00
26821;DHT22;37186;51.394;5.454;2024-03-08T09:05:39;6.50;78.00
26821;DHT22;37186;51.394;5.454;2024-03-08T09:08:43;6.50;78.10
26821;DHT22;37186;51.394;5.454;2024-03-08T09:11:46;6.60;78.00
26821;DHT22;37186;51.394;5.454;2024-03-08T09:14:47;6.60;78.00
26821;DHT22;37186;51.394;5.454;2024-03-08T09:17:48;6.60;78.00
26821;DHT22;37186;51.394;5.454;2024-03-08T09:20:48;6.70;78.00
26821;DHT22;37186;51.394;5.454;2024-03-08T09:23:49;6.70;78.00
26821;DHT22;37186;51.394;5.454;2024-03-08T09:26:50;6.80;78.00
26821;DHT22;37186;51.394;5.454;2024-03-08T09:29:50;6.80;78.00
26821;DHT22;37186;51.394;5.454;2024-03-08T09:32:51;6.80;78.00
26821;DHT22;37186;51.394;5.454;2024-03-08T09:35:51;6.90;78.10
26821;DHT22;37186;51.394;5.454;2024-03-08T09:38:53;6.90;78.00
26821;DHT22;37186;51.394;5.454;2024-03-08T09:41:54;7.00;78.00
26821;DHT22;37186;51.394;5.454;2024-03-08T09:44:55;7.00;78.00
26821;DHT22;37186;51.394;5.454;2024-03-08T09:47:56;7.00;78.00
26821;DHT22;37186;51.394;5.454;2024-03-08T09:50:58;7.10;78.00
26821;DHT22;37186;51.394;5.454;2024-03-08T09:53:58;7.10;78.00
26821;DHT22;37186;51.394;5.454;2024-03-08T09:56:59;7.20;78.10
26821;DHT22;37186;51.394;5.454;2024-03-08T10:00:00;7.20;78.10
26821;DHT22;37186;51.394;5.454;2024-03-08T10:03:01;7.30;78.10
26821;DHT22;37186;51.394;5.454;2024-03-08T10:06:02;7.30;78.20
26821;DHT22;37186;51.394;5.454;2024-03-08T10:09:03;7.30;78.10
26821;DHT22;37186;51.394;5.454;2024-03-08T10:12:07;7.40;78.20
26821;DHT22;37186;51.394;5.454;2024-03-08T10:15:08;7.40;78.10
26821;DHT22;37186;51.394;5.454;2024-03-08T10:18:09;7.50;78.10
26821;DHT22;37186;51.394;5.454;2024-03-08T10:21:11;7.50;78.20
26821;DHT22;37186;51.394;5.454;2024-03-08T10:24:11;7.60;78.20
26821;DHT22;37186;51.394;5.454;2024-03-08T10:27:13;7.70;78.30
26821;DHT22;37186;51.394;5.454;2024-03-08T10:30:17;7.70;78.20
26821;DHT22;37186;51.394;5.454;2024-03-08T10:33:20;7.70;78.20
26821;DHT22;37186;51.394;5.454;2024-03-08T10:36:21;7.80;78.30
26821;DHT22;37186;51.394;5.454;2024-03-08T10:39:23;7.80;78.20
26821;DHT22;37186;51.394;5.454;2024-03-08T10:42:28;7.90;78.30
26821;DHT22;37186;51.394;5.454;2024-03-08T10:45:39;8.00;78.30
26821;DHT22;37186;51.394;5.454;2024-03-08T10:48:44;8.00;78.10
26821;DHT22;37186;51.394;5.454;2024-03-08T10:51:46;8.10;78.30
26821;DHT22;37186;51.394;5.454;2024-03-08T10:54:49;8.20;78.30
26821;DHT22;37186;51.394;5.454;2024-03-08T10:57:52;8.20;78.10
26821;DHT22;37186;51.394;5.454;2024-03-08T11:00:56;8.20;78.10
26821;DHT22;37186;51.394;5.454;2024-03-08T11:03:57;8.30;78.00
26821;DHT22;37186;51.394;5.454;2024-03-08T11:07:01;8.40;78.10
26821;DHT22;37186;51.394;5.454;2024-03-08T11:10:18;8.40;78.10
26821;DHT22;37186;51.394;5.454;2024-03-08T11:13:38;8.40;77.90
26821;DHT22;37186;51.394;5.454;2024-03-08T11:16:43;8.50;77.90
26821;DHT22;37186;51.394;5.454;2024-03-08T11:19:48;8.60;77.80
26821;DHT22;37186;51.394;5.454;2024-03-08T11:25:52;8.60;77.80
26821;DHT22;37186;51.394;5.454;2024-03-08T11:28:53;8.70;77.80
26821;DHT22;37186;51.394;5.454;2024-03-08T11:32:11;8.80;77.90
26821;DHT22;37186;51.394;5.454;2024-03-08T11:35:22;8.90;78.10
26821;DHT22;37186;51.394;5.454;2024-03-08T11:38:26;8.90;77.90
26821;DHT22;37186;51.394;5.454;2024-03-08T11:41:27;9.00;78.20
26821;DHT22;37186;51.394;5.454;2024-03-08T11:44:27;9.00;77.90
26821;DHT22;37186;51.394;5.454;2024-03-08T11:47:28;9.10;78.00
26821;DHT22;37186;51.394;5.454;2024-03-08T11:50:29;9.20;78.10
26821;DHT22;37186;51.394;5.454;2024-03-08T11:53:30;9.20;78.00
26821;DHT22;37186;51.394;5.454;2024-03-08T11:56:32;9.30;78.20
26821;DHT22;37186;51.394;5.454;2024-03-08T11:59:32;9.40;78.20
26821;DHT22;37186;51.394;5.454;2024-03-08T12:02:33;9.50;78.30
26821;DHT22;37186;51.394;5.454;2024-03-08T12:05:38;9.60;78.40
26821;DHT22;37186;51.394;5.454;2024-03-08T12:08:39;9.70;78.00
26821;DHT22;37186;51.394;5.454;2024-03-08T12:11:40;9.80;78.20
26821;DHT22;37186;51.394;5.454;2024-03-08T12:14:43;9.90;78.30
26821;DHT22;37186;51.394;5.454;2024-03-08T12:17:47;10.00;77.90
26821;DHT22;37186;51.394;5.454;2024-03-08T12:20:48;10.10;77.80
26821;DHT22;37186;51.394;5.454;2024-03-08T12:24:06;10.20;77.60
26821;DHT22;37186;51.394;5.454;2024-03-08T12:27:20;10.30;78.10
26821;DHT22;37186;51.394;5.454;2024-03-08T12:30:25;10.50;78.30
26821;DHT22;37186;51.394;5.454;2024-03-08T12:33:28;10.60;77.90
26821;DHT22;37186;51.394;5.454;2024-03-08T12:36:28;10.70;77.80
26821;DHT22;37186;51.394;5.454;2024-03-08T12:39:30;10.80;77.90
26821;DHT22;37186;51.394;5.454;2024-03-08T12:42:30;10.90;77.60
26821;DHT22;37186;51.394;5.454;2024-03-08T12:45:32;11.00;77.50
26821;DHT22;37186;51.394;5.454;2024-03-08T12:48:36;11.10;77.70
26821;DHT22;37186;51.394;5.454;2024-03-08T12:51:40;11.20;77.60
26821;DHT22;37186;51.394;5.454;2024-03-08T12:54:42;11.30;77.40
26821;DHT22;37186;51.394;5.454;2024-03-08T12:57:43;11.40;77.30
26821;DHT22;37186;51.394;5.454;2024-03-08T13:00:43;11.50;77.10
26821;DHT22;37186;51.394;5.454;2024-03-08T13:03:44;11.60;77.10
26821;DHT22;37186;51.394;5.454;2024-03-08T13:06:44;11.60;77.00
26821;DHT22;37186;51.394;5.454;2024-03-08T13:09:47;11.80;77.10
26821;DHT22;37186;51.394;5.454;2024-03-08T13:12:47;11.80;76.50
26821;DHT22;37186;51.394;5.454;2024-03-08T13:15:48;11.90;76.40
26821;DHT22;37186;51.394;5.454;2024-03-08T13:18:49;11.90;76.50
26821;DHT22;37186;51.394;5.454;2024-03-08T13:21:49;11.90;76.70
26821;DHT22;37186;51.394;5.454;2024-03-08T13:24:50;12.00;76.50
26821;DHT22;37186;51.394;5.454;2024-03-08T13:27:52;12.10;76.40
26821;DHT22;37186;51.394;5.454;2024-03-08T13:30:56;12.10;76.20
26821;DHT22;37186;51.394;5.454;2024-03-08T13:33:58;12.20;76.40
26821;DHT22;37186;51.394;5.454;2024-03-08T13:36:58;12.20;76.20
26821;DHT22;37186;51.394;5.454;2024-03-08T13:40:01;12.30;76.00
26821;DHT22;37186;51.394;5.454;2024-03-08T13:43:01;12.30;75.90
26821;DHT22;37186;51.394;5.454;2024-03-08T13:46:02;12.40;75.90
26821;DHT22;37186;51.394;5.454;2024-03-08T13:49:04;12.40;75.90
26821;DHT22;37186;51.394;5.454;2024-03-08T13:52:10;12.40;75.40
26821;DHT22;37186;51.394;5.454;2024-03-08T13:55:12;12.50;76.40
26821;DHT22;37186;51.394;5.454;2024-03-08T13:58:13;12.50;75.80
26821;DHT22;37186;51.394;5.454;2024-03-08T14:01:14;12.60;75.70
26821;DHT22;37186;51.394;5.454;2024-03-08T14:04:14;12.60;75.00
26821;DHT22;37186;51.394;5.454;2024-03-08T14:07:17;12.60;75.50
26821;DHT22;37186;51.394;5.454;2024-03-08T14:10:17;12.70;75.00
26821;DHT22;37186;51.394;5.454;2024-03-08T14:13:22;12.70;74.90
26821;DHT22;37186;51.394;5.454;2024-03-08T14:16:24;12.80;75.80
26821;DHT22;37186;51.394;5.454;2024-03-08T14:19:25;12.90;75.80
26821;DHT22;37186;51.394;5.454;2024-03-08T14:22:26;12.90;75.40
26821;DHT22;37186;51.394;5.454;2024-03-08T14:25:26;12.90;75.20
26821;DHT22;37186;51.394;5.454;2024-03-08T14:28:30;13.00;75.40
26821;DHT22;37186;51.394;5.454;2024-03-08T14:31:32;13.00;74.90
26821;DHT22;37186;51.394;5.454;2024-03-08T14:34:33;13.00;74.60
26821;DHT22;37186;51.394;5.454;2024-03-08T14:37:34;13.10;74.60
26821;DHT22;37186;51.394;5.454;2024-03-08T14:40:35;13.00;74.80
26821;DHT22;37186;51.394;5.454;2024-03-08T14:43:36;13.10;75.00
26821;DHT22;37186;51.394;5.454;2024-03-08T14:46:37;13.10;74.80
26821;DHT22;37186;51.394;5.454;2024-03-08T14:49:37;13.10;74.60
26821;DHT22;37186;51.394;5.454;2024-03-08T14:52:38;13.10;74.60
26821;DHT22;37186;51.394;5.454;2024-03-08T14:55:40;13.20;74.50
26821;DHT22;37186;51.394;5.454;2024-03-08T14:58:40;13.20;75.30
26821;DHT22;37186;51.394;5.454;2024-03-08T15:01:42;13.20;75.50
26821;DHT22;37186;51.394;5.454;2024-03-08T15:04:45;13.30;75.70
26821;DHT22;37186;51.394;5.454;2024-03-08T15:07:47;13.30;75.70
26821;DHT22;37186;51.394;5.454;2024-03-08T15:10:49;13.40;75.70
26821;DHT22;37186;51.394;5.454;2024-03-08T15:13:54;13.40;75.90
26821;DHT22;37186;51.394;5.454;2024-03-08T15:16:54;13.50;75.50
26821;DHT22;37186;51.394;5.454;2024-03-08T15:19:55;13.60;76.20
26821;DHT22;37186;51.394;5.454;2024-03-08T15:22:55;13.60;76.10
26821;DHT22;37186;51.394;5.454;2024-03-08T15:25:58;13.60;76.20
26821;DHT22;37186;51.394;5.454;2024-03-08T15:28:59;13.70;76.10
26821;DHT22;37186;51.394;5.454;2024-03-08T15:32:00;13.70;76.30
26821;DHT22;37186;51.394;5.454;2024-03-08T15:35:01;13.70;76.70
26821;DHT22;37186;51.394;5.454;2024-03-08T15:38:01;13.80;75.70
26821;DHT22;37186;51.394;5.454;2024-03-08T15:41:05;13.80;75.30
26821;DHT22;37186;51.394;5.454;2024-03-08T15:44:12;13.80;75.20
26821;DHT22;37186;51.394;5.454;2024-03-08T15:47:14;13.80;75.70
26821;DHT22;37186;51.394;5.454;2024-03-08T15:50:14;13.90;75.90
26821;DHT22;37186;51.394;5.454;2024-03-08T15:53:18;14.00;76.30
26821;DHT22;37186;51.394;5.454;2024-03-08T15:56:19;14.00;75.80
26821;DHT22;37186;51.394;5.454;2024-03-08T15:59:26;14.10;75.80
26821;DHT22;37186;51.394;5.454;2024-03-08T16:02:29;14.20;75.90
26821;DHT22;37186;51.394;5.454;2024-03-08T16:05:30;14.20;75.80
26821;DHT22;37186;51.394;5.454;2024-03-08T16:08:30;14.30;75.90
26821;DHT22;37186;51.394;5.454;2024-03-08T16:11:32;14.40;76.00
26821;DHT22;37186;51.394;5.454;2024-03-08T16:14:38;14.50;75.90
26821;DHT22;37186;51.394;5.454;2024-03-08T16:17:38;14.50;75.90
26821;DHT22;37186;51.394;5.454;2024-03-08T16:20:40;14.60;76.20
26821;DHT22;37186;51.394;5.454;2024-03-08T16:23:43;14.70;75.90
26821;DHT22;37186;51.394;5.454;2024-03-08T16:26:46;14.70;76.00
26821;DHT22;37186;51.394;5.454;2024-03-08T16:29:47;14.80;75.60
26821;DHT22;37186;51.394;5.454;2024-03-08T16:32:47;14.80;75.90
26821;DHT22;37186;51.394;5.454;2024-03-08T16:35:51;14.90;75.90
26821;DHT22;37186;51.394;5.454;2024-03-08T16:38:54;14.80;74.90
26821;DHT22;37186;51.394;5.454;2024-03-08T16:41:54;14.80;75.30
26821;DHT22;37186;51.394;5.454;2024-03-08T16:44:55;14.70;75.10
26821;DHT22;37186;51.394;5.454;2024-03-08T16:47:55;14.70;74.40
26821;DHT22;37186;51.394;5.454;2024-03-08T16:50:56;14.70;74.70
26821;DHT22;37186;51.394;5.454;2024-03-08T16:53:56;14.60;74.80
26821;DHT22;37186;51.394;5.454;2024-03-08T16:56:57;14.50;74.70
26821;DHT22;37186;51.394;5.454;2024-03-08T16:59:58;14.50;74.50
26821;DHT22;37186;51.394;5.454;2024-03-08T17:03:01;14.40;73.40
26821;DHT22;37186;51.394;5.454;2024-03-08T17:06:02;14.30;72.20
26821;DHT22;37186;51.394;5.454;2024-03-08T17:09:08;14.20;74.00
26821;DHT22;37186;51.394;5.454;2024-03-08T17:12:12;14.10;73.70
26821;DHT22;37186;51.394;5.454;2024-03-08T17:15:22;14.10;74.10
26821;DHT22;37186;51.394;5.454;2024-03-08T17:18:23;13.90;73.80
26821;DHT22;37186;51.394;5.454;2024-03-08T17:21:23;13.90;73.80
26821;DHT22;37186;51.394;5.454;2024-03-08T17:24:24;13.80;73.40
26821;DHT22;37186;51.394;5.454;2024-03-08T17:27:27;13.70;73.60
26821;DHT22;37186;51.394;5.454;2024-03-08T17:30:28;13.70;73.60
26821;DHT22;37186;51.394;5.454;2024-03-08T17:33:29;13.60;73.50
26821;DHT22;37186;51.394;5.454;2024-03-08T17:36:35;13.50;73.60
26821;DHT22;37186;51.394;5.454;2024-03-08T17:39:37;13.40;73.00
26821;DHT22;37186;51.394;5.454;2024-03-08T17:42:38;13.30;73.50
26821;DHT22;37186;51.394;5.454;2024-03-08T17:45:40;13.20;72.90
26821;DHT22;37186;51.394;5.454;2024-03-08T17:48:42;13.20;73.30
26821;DHT22;37186;51.394;5.454;2024-03-08T17:51:43;13.10;73.50
26821;DHT22;37186;51.394;5.454;2024-03-08T17:54:46;13.00;73.20
26821;DHT22;37186;51.394;5.454;2024-03-08T17:57:47;12.90;73.30
26821;DHT22;37186;51.394;5.454;2024-03-08T18:00:48;12.90;73.40
26821;DHT22;37186;51.394;5.454;2024-03-08T18:03:51;12.80;72.90
26821;DHT22;37186;51.394;5.454;2024-03-08T18:06:53;12.70;72.60
26821;DHT22;37186;51.394;5.454;2024-03-08T18:09:53;12.70;73.30
26821;DHT22;37186;51.394;5.454;2024-03-08T18:12:55;12.60;73.20
26821;DHT22;37186;51.394;5.454;2024-03-08T18:15:59;12.50;72.90
26821;DHT22;37186;51.394;5.454;2024-03-08T18:19:00;12.50;73.30
26821;DHT22;37186;51.394;5.454;2024-03-08T18:22:07;12.40;73.00
26821;DHT22;37186;51.394;5.454;2024-03-08T18:25:09;12.40;73.20
26821;DHT22;37186;51.394;5.454;2024-03-08T18:28:16;12.30;73.40
26821;DHT22;37186;51.394;5.454;2024-03-08T18:31:17;12.20;73.10
26821;DHT22;37186;51.394;5.454;2024-03-08T18:34:18;12.20;73.30
26821;DHT22;37186;51.394;5.454;2024-03-08T18:37:19;12.20;73.00
26821;DHT22;37186;51.394;5.454;2024-03-08T18:40:23;12.10;73.50
26821;DHT22;37186;51.394;5.454;2024-03-08T18:43:23;12.00;73.40
26821;DHT22;37186;51.394;5.454;2024-03-08T18:46:26;12.00;73.30
26821;DHT22;37186;51.394;5.454;2024-03-08T18:49:27;12.00;73.60
26821;DHT22;37186;51.394;5.454;2024-03-08T18:52:27;11.90;73.50
26821;DHT22;37186;51.394;5.454;2024-03-08T18:55:28;11.90;73.60
26821;DHT22;37186;51.394;5.454;2024-03-08T18:58:31;11.80;73.60
26821;DHT22;37186;51.394;5.454;2024-03-08T19:01:33;11.80;73.60
26821;DHT22;37186;51.394;5.454;2024-03-08T19:04:36;11.70;73.40
26821;DHT22;37186;51.394;5.454;2024-03-08T19:07:37;11.70;73.40
26821;DHT22;37186;51.394;5.454;2024-03-08T19:10:39;11.60;73.50
26821;DHT22;37186;51.394;5.454;2024-03-08T19:13:40;11.60;73.50
26821;DHT22;37186;51.394;5.454;2024-03-08T19:16:41;11.60;73.70
26821;DHT22;37186;51.394;5.454;2024-03-08T19:19:42;11.60;73.70
26821;DHT22;37186;51.394;5.454;2024-03-08T19:22:43;11.50;73.60